createdAt,value
2022-08-20T00:00:36.174Z,82.95
2022-08-20T00:05:38.671Z,81.84
2022-08-20T00:10:43.898Z,81.90
2022-08-20T00:15:48.549Z,81.17
2022-08-20T00:20:51.985Z,81.07
2022-08-20T00:25:54.392Z,81.05
2022-08-20T00:30:55.283Z,81.23
2022-08-20T00:35:57.478Z,81.34
2022-08-20T00:41:00.241Z,81.35
2022-08-20T00:46:02.564Z,81.37
2022-08-20T00:51:06.718Z,81.63
2022-08-20T00:56:10.576Z,82.77
2022-08-20T01:01:11.618Z,83.49
2022-08-20T01:06:12.239Z,85.12
2022-08-20T01:11:16.565Z,86.49
2022-08-20T01:16:23.663Z,86.46
2022-08-20T01:21:28.158Z,87.14
2022-08-20T01:26:35.210Z,87.42
2022-08-20T01:31:38.816Z,87.90
2022-08-20T01:36:46.350Z,87.96
2022-08-20T01:42:04.309Z,87.59
2022-08-20T01:47:16.420Z,88.33
2022-08-20T01:52:25.873Z,88.90
2022-08-20T01:57:29.205Z,90.44
2022-08-20T02:02:29.824Z,91.46
2022-08-20T02:07:32.346Z,92.79
2022-08-20T02:12:35.182Z,94.56
2022-08-20T02:17:36.331Z,95.61
2022-08-20T02:22:40.539Z,95.64
2022-08-20T02:27:49.463Z,97.25
2022-08-20T02:32:50.258Z,98.72
2022-08-20T02:37:57.264Z,99.79
2022-08-20T02:43:00.284Z,100.00
2022-08-20T02:48:00.884Z,100.00
2022-08-20T02:53:01.482Z,100.00
2022-08-20T02:58:03.462Z,100.00
2022-08-20T03:03:04.239Z,100.00
2022-08-20T03:08:07.065Z,100.00
2022-08-20T03:13:12.305Z,100.00
2022-08-20T03:18:13.618Z,100.00
2022-08-20T03:23:17.198Z,100.00
2022-08-20T03:28:19.898Z,100.00
2022-08-20T03:33:21.299Z,100.00
2022-08-20T03:38:32.635Z,100.00
2022-08-20T03:43:35.561Z,100.00
2022-08-20T03:48:36.369Z,100.00
2022-08-20T03:53:37.058Z,100.00
2022-08-20T03:58:39.199Z,100.00
2022-08-20T04:03:39.813Z,100.00
2022-08-20T04:08:41.541Z,100.00
2022-08-20T04:13:43.534Z,100.00
2022-08-20T04:19:01.647Z,100.00
2022-08-20T04:24:04.452Z,100.00
2022-08-20T04:29:06.390Z,100.00
2022-08-20T04:34:08.017Z,100.00
2022-08-20T04:39:08.652Z,100.00
2022-08-20T04:44:11.759Z,100.00
2022-08-20T04:49:12.788Z,100.00
2022-08-20T04:54:14.414Z,100.00
2022-08-20T04:59:16.494Z,100.00
2022-08-20T05:04:17.097Z,100.00
2022-08-20T05:09:17.696Z,100.00
2022-08-20T05:14:19.872Z,100.00
2022-08-20T05:19:25.747Z,100.00
2022-08-20T05:24:27.276Z,100.00
2022-08-20T05:29:29.632Z,100.00
2022-08-20T05:34:30.250Z,100.00
2022-08-20T05:39:35.396Z,100.00
2022-08-20T05:44:39.338Z,100.00
2022-08-20T05:49:40.318Z,100.00
2022-08-20T05:54:40.928Z,100.00
2022-08-20T05:59:42.862Z,100.00
2022-08-20T06:04:43.473Z,100.00
2022-08-20T06:09:44.579Z,100.00
2022-08-20T06:14:47.406Z,100.00
2022-08-20T06:19:48.792Z,100.00
2022-08-20T06:24:50.416Z,100.00
2022-08-20T06:29:53.346Z,100.00
2022-08-20T06:34:54.225Z,100.00
2022-08-20T06:39:55.094Z,100.00
2022-08-20T06:44:59.568Z,100.00
2022-08-20T06:50:00.263Z,100.00
2022-08-20T06:55:01.244Z,100.00
2022-08-20T07:00:03.305Z,100.00
2022-08-20T07:05:05.210Z,100.00
2022-08-20T07:10:07.465Z,100.00
2022-08-20T07:15:12.163Z,100.00
2022-08-20T07:20:16.055Z,100.00
2022-08-20T07:25:19.681Z,100.00
2022-08-20T07:30:56.229Z,100.00
2022-08-20T07:35:58.878Z,100.00
2022-08-20T07:41:01.913Z,100.00
2022-08-20T07:46:07.502Z,100.00
2022-08-20T07:51:11.415Z,100.00
2022-08-20T07:56:14.563Z,100.00
2022-08-20T08:01:17.312Z,100.00
2022-08-20T08:06:29.554Z,100.00
2022-08-20T08:11:33.455Z,100.00
2022-08-20T08:16:35.585Z,100.00
2022-08-20T08:21:36.292Z,100.00
2022-08-20T08:26:36.986Z,100.00
2022-08-20T08:31:40.945Z,100.00
2022-08-20T08:36:44.291Z,100.00
2022-08-20T08:41:50.046Z,100.00
2022-08-20T08:46:56.527Z,100.00
2022-08-20T08:52:04.472Z,100.00
2022-08-20T08:57:08.197Z,100.00
2022-08-20T09:02:20.049Z,100.00
2022-08-20T09:07:20.953Z,100.00
2022-08-20T09:12:23.659Z,100.00
2022-08-20T09:17:26.326Z,100.00
2022-08-20T09:22:26.953Z,100.00
2022-08-20T09:27:27.531Z,100.00
2022-08-20T09:32:29.442Z,100.00
2022-08-20T09:37:36.685Z,100.00
2022-08-20T09:42:41.634Z,100.00
2022-08-20T09:47:55.251Z,100.00
2022-08-20T09:53:00.525Z,100.00
2022-08-20T09:58:02.486Z,100.00
2022-08-20T10:03:04.474Z,100.00
2022-08-20T10:08:06.595Z,100.00
2022-08-20T10:13:07.249Z,100.00
2022-08-20T10:18:12.282Z,100.00
2022-08-20T10:23:13.246Z,100.00
2022-08-20T10:28:13.857Z,100.00
2022-08-20T10:33:15.835Z,100.00
2022-08-20T10:38:16.440Z,100.00
2022-08-20T10:43:17.045Z,100.00
2022-08-20T10:48:21.555Z,100.00
2022-08-20T10:53:22.381Z,100.00
2022-08-20T10:58:23.124Z,100.00
2022-08-20T11:03:25.994Z,100.00
2022-08-20T11:08:34.261Z,100.00
2022-08-20T11:13:38.186Z,100.00
2022-08-20T11:18:43.758Z,100.00
2022-08-20T11:23:47.662Z,100.00
2022-08-20T11:28:48.566Z,100.00
2022-08-20T11:33:50.807Z,100.00
2022-08-20T11:38:51.819Z,100.00
2022-08-20T11:44:10.740Z,100.00
2022-08-20T11:49:15.496Z,100.00
2022-08-20T11:54:16.549Z,100.00
2022-08-20T11:59:18.337Z,100.00
2022-08-20T12:04:21.313Z,100.00
2022-08-20T12:09:26.368Z,100.00
2022-08-20T12:14:27.830Z,100.00
2022-08-20T12:19:30.189Z,100.00
2022-08-20T12:24:31.166Z,100.00
2022-08-20T12:29:34.509Z,100.00
2022-08-20T12:34:40.788Z,100.00
2022-08-20T12:39:44.306Z,100.00
2022-08-20T12:44:45.503Z,100.00
2022-08-20T12:49:51.430Z,100.00
2022-08-20T12:54:52.439Z,100.00
2022-08-20T12:59:53.452Z,100.00
2022-08-20T13:04:55.728Z,100.00
2022-08-20T13:09:59.594Z,100.00
2022-08-20T13:15:00.210Z,100.00
2022-08-20T13:20:02.274Z,100.00
2022-08-20T13:25:02.893Z,100.00
2022-08-20T13:30:03.517Z,100.00
2022-08-20T13:35:06.681Z,100.00
2022-08-20T13:40:09.172Z,100.00
2022-08-20T13:45:10.921Z,100.00
2022-08-20T13:50:16.590Z,100.00
2022-08-20T13:55:22.132Z,100.00
2022-08-20T14:00:31.095Z,100.00
2022-08-20T14:05:34.435Z,100.00
2022-08-20T14:10:35.486Z,100.00
2022-08-20T14:15:37.482Z,100.00
2022-08-20T14:20:39.729Z,100.00
2022-08-20T14:25:42.063Z,100.00
2022-08-20T14:30:42.877Z,96.87
2022-08-20T14:35:44.807Z,98.95
2022-08-20T14:40:45.531Z,99.61
2022-08-20T14:45:46.309Z,99.59
2022-08-20T14:50:48.452Z,100.00
2022-08-20T14:55:49.240Z,100.00
2022-08-20T15:00:50.396Z,100.00
2022-08-20T15:05:52.397Z,100.00
2022-08-20T15:10:55.070Z,100.00
2022-08-20T15:15:55.946Z,100.00
2022-08-20T15:20:58.220Z,100.00
2022-08-20T15:25:58.830Z,100.00
2022-08-20T15:30:59.461Z,100.00
2022-08-20T15:36:01.564Z,100.00
2022-08-20T15:41:02.919Z,100.00
2022-08-20T15:46:06.178Z,100.00
2022-08-20T15:51:24.141Z,100.00
2022-08-20T15:56:42.982Z,100.00
2022-08-20T16:01:54.269Z,100.00
2022-08-20T16:07:03.093Z,100.00
2022-08-20T16:12:10.212Z,100.00
2022-08-20T16:17:15.852Z,100.00
2022-08-20T16:22:20.180Z,100.00
2022-08-20T16:27:29.372Z,100.00
2022-08-20T16:32:37.673Z,100.00
2022-08-20T16:37:48.042Z,100.00
2022-08-20T16:42:52.200Z,100.00
2022-08-20T16:47:55.491Z,100.00
2022-08-20T16:52:57.624Z,100.00
2022-08-20T16:57:58.699Z,100.00
2022-08-20T17:03:01.131Z,100.00
2022-08-20T17:08:07.118Z,100.00
2022-08-20T17:13:23.856Z,100.00
2022-08-20T17:18:32.212Z,100.00
2022-08-20T17:23:54.643Z,100.00
2022-08-20T17:29:02.549Z,100.00
2022-08-20T17:34:03.517Z,100.00
2022-08-20T17:39:15.501Z,100.00
2022-08-20T17:44:23.669Z,100.00
2022-08-20T17:49:34.865Z,100.00
2022-08-20T17:54:40.216Z,100.00
2022-08-20T17:59:59.811Z,100.00
2022-08-20T18:05:10.245Z,100.00
2022-08-20T18:10:19.394Z,100.00
2022-08-20T18:15:24.798Z,100.00
2022-08-20T18:20:40.577Z,100.00
2022-08-20T18:25:46.725Z,100.00
2022-08-20T18:30:50.303Z,100.00
2022-08-20T18:35:51.201Z,100.00
2022-08-20T18:40:55.240Z,100.00
2022-08-20T18:45:56.105Z,100.00
2022-08-20T18:50:58.611Z,100.00
2022-08-20T18:56:06.942Z,100.00
2022-08-20T19:01:13.608Z,100.00
2022-08-20T19:06:26.028Z,100.00
2022-08-20T19:11:46.706Z,100.00
2022-08-20T19:16:51.721Z,100.00
2022-08-20T19:21:53.384Z,100.00
2022-08-20T19:26:58.823Z,100.00
2022-08-20T19:32:01.046Z,100.00
2022-08-20T19:37:28.177Z,100.00
2022-08-20T19:42:30.212Z,100.00
2022-08-20T19:47:34.630Z,100.00
2022-08-20T19:52:51.617Z,100.00
2022-08-20T19:57:57.021Z,100.00
2022-08-20T20:02:57.935Z,100.00
2022-08-20T20:07:59.784Z,100.00
2022-08-20T20:13:08.780Z,100.00
2022-08-20T20:18:10.558Z,100.00
2022-08-20T20:23:15.890Z,100.00
2022-08-20T20:28:22.637Z,100.00
2022-08-20T20:33:30.743Z,100.00
2022-08-20T20:38:31.454Z,100.00
2022-08-20T20:43:36.731Z,100.00
2022-08-20T20:48:45.982Z,100.00
2022-08-20T20:53:54.376Z,100.00
2022-08-20T20:58:57.617Z,100.00
2022-08-20T21:03:59.961Z,100.00
2022-08-20T21:09:01.388Z,100.00
2022-08-20T21:14:03.291Z,100.00
2022-08-20T21:19:06.682Z,100.00
2022-08-20T21:24:08.688Z,100.00
2022-08-20T21:29:14.198Z,100.00
2022-08-20T21:34:16.560Z,100.00
2022-08-20T21:39:17.716Z,100.00
2022-08-20T21:44:22.807Z,100.00
2022-08-20T21:49:27.194Z,100.00
2022-08-20T21:54:28.252Z,100.00
2022-08-20T21:59:30.519Z,100.00
2022-08-20T22:04:34.891Z,100.00
2022-08-20T22:09:38.292Z,100.00
2022-08-20T22:14:40.239Z,100.00
2022-08-20T22:19:40.958Z,100.00
2022-08-20T22:24:41.641Z,100.00
2022-08-20T22:29:43.577Z,100.00
2022-08-20T22:34:44.266Z,100.00
2022-08-20T22:39:44.912Z,100.00
2022-08-20T22:44:46.835Z,100.00
2022-08-20T22:49:47.508Z,100.00
2022-08-20T22:54:48.190Z,100.00
2022-08-20T22:59:53.156Z,100.00
2022-08-20T23:04:54.189Z,100.00
2022-08-20T23:09:54.827Z,100.00
2022-08-20T23:14:56.747Z,100.00
2022-08-20T23:19:57.354Z,100.00
2022-08-20T23:25:00.528Z,100.00
2022-08-20T23:30:02.731Z,100.00
2022-08-20T23:35:03.336Z,100.00
2022-08-20T23:40:05.493Z,100.00
2022-08-20T23:45:08.903Z,100.00
2022-08-20T23:50:11.842Z,100.00
2022-08-20T23:55:13.393Z,100.00
